Terminal Aerodrome Forecast
Issued by NWS Paducah, KY

Home | Current Version | Previous Version | Text Only | Print | Product List | Glossary On
Versions: 1 2 3 4 5 6 7 8 9 10 11 12 13 14 15
468
FTUS43 KPAH 140540
TAFPAH
TAF
KPAH 140540Z 1406/1506 09008KT P6SM OVC060
     FM141300 12009KT P6SM -SN SCT025 OVC050
     FM141500 13009KT 3SM -SN SCT015 OVC025
      TEMPO 1415/1419 1/2SM SN BKN015
     FM142000 14007KT 4SM -FZDZ BR OVC015=

USA.gov is the U.S. government's official web portal to all federal, state and local government web resources and services.